Time;durP1;ratioP1;P1;durP2;ratioP2;P2;SDS_P1;SDS_P2;PMS_P1;PMS_P2;Temp;Humidity;BMP_temperature;BMP_pressure;BME280_temperature;BME280_humidity;BME280_pressure;Samples;Min_cycle;Max_cycle;Signal;HPM_P1;HPM_P2
2022/03/15 00:02:21;;;;;;;3.70;1.63;;;;;;;7.08;68.35;97332.69;5035747;28;20209;-72
2022/03/15 00:04:48;;;;;;;1.50;1.00;;;;;;;7.05;68.55;97333.75;5036581;28;20229;-72
2022/03/15 00:07:15;;;;;;;1.70;1.47;;;;;;;7.13;68.18;97340.94;5040402;28;20204;-72
2022/03/15 00:09:42;;;;;;;5.90;2.00;;;;;;;7.11;67.79;97343.72;5040251;28;20208;-72
2022/03/15 00:12:10;;;;;;;3.47;1.83;;;;;;;7.29;67.48;97342.16;5040748;28;20209;-72
2022/03/15 00:14:37;;;;;;;2.37;1.43;;;;;;;7.17;67.60;97348.44;5037446;28;20227;-73
2022/03/15 00:17:05;;;;;;;5.80;1.97;;;;;;;7.35;67.80;97357.38;5039434;28;20229;-72
2022/03/15 00:19:32;;;;;;;3.90;1.90;;;;;;;7.17;67.59;97353.69;5040333;28;20240;-72
2022/03/15 00:21:59;;;;;;;3.03;1.83;;;;;;;7.26;67.41;97363.41;5041010;28;20201;-72
2022/03/15 00:24:25;;;;;;;3.50;1.80;;;;;;;7.29;67.53;97358.72;5039151;28;20221;-71
2022/03/15 00:26:54;;;;;;;4.43;1.43;;;;;;;7.38;67.02;97363.19;5039822;28;20688;-72
2022/03/15 00:29:23;;;;;;;2.43;1.50;;;;;;;7.33;67.37;97357.50;5040659;28;21037;-71
2022/03/15 00:31:50;;;;;;;2.80;1.67;;;;;;;7.25;67.27;97353.03;5039777;28;21557;-72
2022/03/15 00:34:18;;;;;;;4.50;2.60;;;;;;;7.32;67.71;97358.47;5039038;28;20252;-72
2022/03/15 00:36:45;;;;;;;3.63;1.67;;;;;;;7.00;68.00;97351.66;5039924;28;20221;-72
2022/03/15 00:39:12;;;;;;;2.43;1.57;;;;;;;6.79;68.21;97342.13;5039757;28;20205;-72
2022/03/15 00:41:38;;;;;;;1.37;1.27;;;;;;;6.57;69.27;97347.47;5039707;28;20205;-73
2022/03/15 00:44:05;;;;;;;4.57;1.67;;;;;;;6.48;69.37;97332.53;5038736;28;20233;-72
2022/03/15 00:46:31;;;;;;;3.07;2.10;;;;;;;6.49;70.24;97334.19;5039651;28;20201;-72
2022/03/15 00:48:58;;;;;;;8.27;1.53;;;;;;;6.48;70.39;97326.44;5039256;28;20194;-72
2022/03/15 00:51:27;;;;;;;1.90;1.50;;;;;;;6.64;70.40;97322.44;5039857;28;20209;-72
2022/03/15 00:53:54;;;;;;;3.37;1.63;;;;;;;6.33;71.29;97323.31;5038632;28;20221;-71
2022/03/15 00:56:20;;;;;;;3.43;1.93;;;;;;;6.41;71.30;97320.88;5039088;28;20225;-71
2022/03/15 00:58:48;;;;;;;4.57;2.00;;;;;;;6.43;70.94;97311.13;5039828;28;20209;-72
2022/03/15 01:01:14;;;;;;;2.13;1.63;;;;;;;6.49;70.75;97308.00;5039555;28;20205;-72
2022/03/15 01:03:41;;;;;;;3.63;1.67;;;;;;;6.51;70.72;97305.25;5038486;28;20229;-72
2022/03/15 01:06:07;;;;;;;1.83;1.20;;;;;;;6.36;71.21;97309.94;5039160;28;20212;-71
2022/03/15 01:08:35;;;;;;;6.23;1.80;;;;;;;6.42;71.91;97299.00;5039256;28;20209;-72
2022/03/15 01:11:05;;;;;;;3.60;1.67;;;;;;;6.29;72.41;97303.56;5039132;28;20209;-72
2022/03/15 01:13:31;;;;;;;6.17;1.40;;;;;;;6.15;73.06;97301.25;5038451;28;20236;-72
2022/03/15 01:15:57;;;;;;;2.17;1.33;;;;;;;6.32;72.83;97311.16;5035935;28;20208;-71
2022/03/15 01:18:24;;;;;;;3.83;1.43;;;;;;;6.50;71.90;97299.19;5039179;28;20205;-72
2022/03/15 01:20:51;;;;;;;3.97;1.60;;;;;;;6.49;71.71;97301.94;5038694;28;20201;-72
2022/03/15 01:23:18;;;;;;;2.90;1.93;;;;;;;6.55;71.41;97299.63;5038392;28;20257;-72
2022/03/15 01:25:46;;;;;;;2.93;1.30;;;;;;;6.63;72.34;97289.34;5038732;28;20205;-72
2022/03/15 01:28:14;;;;;;;2.73;1.40;;;;;;;6.45;72.11;97290.88;5038895;28;20631;-72
2022/03/15 01:30:40;;;;;;;4.77;2.20;;;;;;;6.50;72.41;97288.69;5039388;28;20205;-71
2022/03/15 01:33:07;;;;;;;1.90;1.40;;;;;;;6.45;72.46;97280.41;5038275;28;20229;-72
2022/03/15 01:35:34;;;;;;;3.23;1.53;;;;;;;6.50;72.58;97283.47;5038903;28;20201;-71
2022/03/15 01:38:00;;;;;;;2.13;1.50;;;;;;;6.56;72.58;97275.13;5038944;28;20221;-72
2022/03/15 01:40:28;;;;;;;3.73;1.43;;;;;;;6.68;72.32;97284.56;5038982;28;20201;-72
2022/03/15 01:42:55;;;;;;;4.27;1.50;;;;;;;6.96;71.02;97274.28;5037712;28;20225;-72
2022/03/15 01:45:31;;;;;;;3.03;1.27;;;;;;;7.06;71.03;97271.69;5038593;28;20213;-71
2022/03/15 01:47:57;;;;;;;3.63;1.67;;;;;;;6.80;70.99;97271.28;5038526;28;20201;-72
2022/03/15 01:50:24;;;;;;;3.47;2.20;;;;;;;6.85;70.72;97265.66;5038607;28;20209;-72
2022/03/15 01:52:50;;;;;;;5.00;1.60;;;;;;;6.39;72.54;97266.97;5037762;28;20208;-72
2022/03/15 01:55:17;;;;;;;2.43;1.20;;;;;;;6.37;73.02;97258.44;5038429;28;20217;-72
2022/03/15 01:57:43;;;;;;;2.67;1.47;;;;;;;6.48;72.57;97259.22;5038181;28;20600;-72
2022/03/15 02:00:12;;;;;;;3.40;1.60;;;;;;;6.57;72.46;97253.22;5038281;28;20205;-71
2022/03/15 02:02:39;;;;;;;3.03;1.90;;;;;;;6.41;72.70;97254.63;5037560;28;20673;-71
2022/03/15 02:05:07;;;;;;;7.03;2.30;;;;;;;6.52;72.93;97255.38;5038150;28;20208;-72
2022/03/15 02:07:33;;;;;;;5.10;2.03;;;;;;;6.49;72.47;97245.19;5037775;28;20231;-72
2022/03/15 02:10:00;;;;;;;2.53;1.63;;;;;;;6.63;72.14;97244.81;5038381;28;20580;-72
2022/03/15 02:12:28;;;;;;;3.63;1.80;;;;;;;6.61;71.98;97241.53;5037610;28;20574;-71
2022/03/15 02:14:57;;;;;;;1.67;1.50;;;;;;;6.65;72.25;97239.47;5035325;28;20225;-71
2022/03/15 02:17:24;;;;;;;5.80;1.93;;;;;;;6.65;72.61;97235.06;5037831;28;20767;-72
2022/03/15 02:19:51;;;;;;;3.03;1.47;;;;;;;6.51;72.50;97237.19;5037579;28;20209;-71
2022/03/15 02:22:20;;;;;;;1.17;1.10;;;;;;;6.64;72.73;97240.44;5037012;28;20769;-72
2022/03/15 02:24:46;;;;;;;3.63;1.70;;;;;;;6.68;72.18;97240.03;5037836;28;20279;-72
2022/03/15 02:27:13;;;;;;;22.53;2.00;;;;;;;6.72;71.83;97217.84;5037628;28;20724;-72
2022/03/15 02:29:39;;;;;;;2.57;1.00;;;;;;;6.59;71.45;97214.63;5038142;28;20868;-72
2022/03/15 02:32:07;;;;;;;5.10;1.93;;;;;;;6.46;72.89;97207.94;5039177;28;20606;-72
2022/03/15 02:34:33;;;;;;;1.90;1.10;;;;;;;6.35;73.36;97214.06;5036739;28;21092;-72
2022/03/15 02:37:00;;;;;;;6.03;1.47;;;;;;;6.44;73.27;97212.47;5037138;28;21102;-72
2022/03/15 02:39:28;;;;;;;1.57;1.20;;;;;;;6.45;73.20;97206.28;5038124;28;20569;-72
2022/03/15 02:41:54;;;;;;;2.10;1.57;;;;;;;6.33;73.30;97205.50;5037973;28;20227;-72
2022/03/15 02:44:23;;;;;;;6.30;3.33;;;;;;;6.27;73.62;97199.97;5036083;28;20233;-72
2022/03/15 02:46:50;;;;;;;4.37;1.47;;;;;;;6.35;73.51;97200.13;5037121;28;20681;-72
2022/03/15 02:49:17;;;;;;;3.00;1.60;;;;;;;6.25;74.02;97204.47;5038067;28;20205;-72
2022/03/15 02:51:43;;;;;;;1.87;1.13;;;;;;;6.24;74.09;97205.47;5037062;28;20240;-72
2022/03/15 02:54:11;;;;;;;17.90;1.73;;;;;;;6.38;73.71;97215.63;5036388;28;20224;-72
2022/03/15 02:56:42;;;;;;;1.70;1.43;;;;;;;6.69;72.86;97220.75;5037666;28;20200;-72
2022/03/15 02:59:08;;;;;;;2.57;1.77;;;;;;;6.57;73.10;97220.94;5037272;28;20209;-72
2022/03/15 03:01:35;;;;;;;5.13;1.93;;;;;;;6.60;72.50;97224.13;5037043;28;20205;-72
2022/03/15 03:04:01;;;;;;;2.93;1.33;;;;;;;6.70;71.94;97222.41;5036244;28;20253;-73
2022/03/15 03:06:28;;;;;;;6.90;1.60;;;;;;;6.63;72.26;97226.50;5037018;28;20212;-72
2022/03/15 03:08:55;;;;;;;9.97;1.90;;;;;;;6.73;71.87;97224.75;5036770;28;21034;-72
2022/03/15 03:11:21;;;;;;;7.43;1.70;;;;;;;6.69;72.03;97216.34;5037337;28;20209;-72
2022/03/15 03:13:52;;;;;;;3.60;1.30;;;;;;;6.92;71.44;97215.19;5034527;28;20721;-72
2022/03/15 03:16:19;;;;;;;2.70;1.60;;;;;;;6.73;72.33;97220.38;5034300;28;20697;-72
2022/03/15 03:18:45;;;;;;;2.97;1.73;;;;;;;6.50;72.70;97212.78;5037217;28;20225;-72
2022/03/15 03:21:12;;;;;;;2.97;1.50;;;;;;;6.27;73.63;97211.25;5040155;28;20209;-72
2022/03/15 03:23:39;;;;;;;3.47;1.40;;;;;;;6.07;75.21;97208.63;5039519;28;20256;-72
2022/03/15 03:26:07;;;;;;;3.63;1.67;;;;;;;6.26;74.68;97209.63;5037387;28;20259;-72
2022/03/15 03:28:36;;;;;;;1.57;1.10;;;;;;;6.29;74.05;97216.38;5036835;28;20205;-72
2022/03/15 03:31:05;;;;;;;4.10;1.67;;;;;;;6.40;73.63;97214.53;5036651;28;20228;-72
2022/03/15 03:33:32;;;;;;;2.43;1.27;;;;;;;6.35;74.23;97211.47;5035975;28;20239;-72
2022/03/15 03:35:59;;;;;;;8.13;2.03;;;;;;;6.46;73.51;97210.56;5037169;28;20208;-72
2022/03/15 03:38:25;;;;;;;2.40;1.30;;;;;;;6.57;73.23;97216.56;5036427;28;20588;-73
2022/03/15 03:40:52;;;;;;;3.97;1.50;;;;;;;6.40;72.93;97218.91;5036479;28;20216;-72
2022/03/15 03:43:20;;;;;;;3.47;1.57;;;;;;;6.37;73.24;97206.91;5036589;28;20268;-72
2022/03/15 03:45:46;;;;;;;5.37;2.03;;;;;;;6.24;73.86;97218.53;5036526;28;20205;-72
2022/03/15 03:48:14;;;;;;;1.10;0.90;;;;;;;6.17;75.03;97225.22;5036634;28;20213;-72
2022/03/15 03:50:43;;;;;;;3.87;2.07;;;;;;;6.34;73.84;97227.25;5037226;28;20205;-72
2022/03/15 03:53:10;;;;;;;3.00;1.37;;;;;;;6.49;73.65;97228.63;5036461;28;20225;-72
2022/03/15 03:55:37;;;;;;;2.13;1.13;;;;;;;6.21;74.02;97227.47;5035749;28;20201;-72
2022/03/15 03:58:04;;;;;;;4.40;1.70;;;;;;;6.18;73.98;97212.00;5036469;28;20469;-72
2022/03/15 04:00:30;;;;;;;3.17;1.70;;;;;;;6.12;74.93;97216.91;5037037;28;20201;-72
2022/03/15 04:03:00;;;;;;;3.20;2.10;;;;;;;6.02;75.26;97212.56;5035491;28;20717;-72
2022/03/15 04:05:30;;;;;;;2.73;1.57;;;;;;;6.14;75.22;97217.63;5036440;28;20908;-72
2022/03/15 04:07:58;;;;;;;10.50;2.00;;;;;;;6.08;75.25;97212.91;5035981;28;20197;-72
2022/03/15 04:10:28;;;;;;;3.83;1.50;;;;;;;6.05;74.51;97207.94;5036022;28;21241;-72
2022/03/15 04:12:55;;;;;;;4.10;1.53;;;;;;;6.12;74.38;97206.44;5035345;28;20225;-72
2022/03/15 04:15:22;;;;;;;2.27;1.30;;;;;;;6.17;74.61;97207.75;5033104;28;20465;-72
2022/03/15 04:17:48;;;;;;;3.17;1.53;;;;;;;5.97;75.60;97206.88;5036469;28;20232;-72
2022/03/15 04:20:16;;;;;;;5.50;1.23;;;;;;;6.16;75.28;97205.25;5036174;28;20208;-72
2022/03/15 04:22:44;;;;;;;6.63;1.60;;;;;;;6.25;75.67;97207.94;5035315;28;20233;-72
2022/03/15 04:25:11;;;;;;;1.40;1.30;;;;;;;6.19;76.06;97200.59;5036413;28;20217;-72
2022/03/15 04:27:38;;;;;;;1.87;1.33;;;;;;;6.13;75.29;97200.28;5035782;28;20205;-72
2022/03/15 04:30:06;;;;;;;3.40;1.87;;;;;;;5.99;77.00;97202.38;5036161;28;21030;-72
2022/03/15 04:32:32;;;;;;;3.60;1.30;;;;;;;6.07;76.78;97211.22;5035403;28;20202;-72
2022/03/15 04:34:59;;;;;;;2.13;1.30;;;;;;;6.15;76.26;97193.94;5035779;28;20225;-72
2022/03/15 04:37:25;;;;;;;4.20;1.17;;;;;;;6.03;76.42;97209.81;5036245;28;20231;-72
2022/03/15 04:39:55;;;;;;;4.03;1.87;;;;;;;6.36;75.43;97204.44;5036044;28;20210;-72
2022/03/15 04:42:22;;;;;;;10.60;1.97;;;;;;;5.85;76.96;97207.91;5035475;28;20943;-72
2022/03/15 04:44:49;;;;;;;3.27;1.77;;;;;;;5.66;77.78;97199.84;5035652;28;20678;-74
2022/03/15 04:47:15;;;;;;;2.47;1.03;;;;;;;5.81;77.06;97196.03;5037840;28;20203;-72
2022/03/15 04:49:42;;;;;;;4.57;1.47;;;;;;;5.82;76.44;97189.84;5036518;28;20216;-72
2022/03/15 04:52:09;;;;;;;2.13;1.73;;;;;;;5.47;78.94;97200.50;5037983;28;20208;-72
2022/03/15 04:54:35;;;;;;;3.00;1.70;;;;;;;5.46;80.22;97221.56;5039449;28;21518;-72
2022/03/15 04:57:04;;;;;;;3.20;2.30;;;;;;;5.73;80.12;97227.19;5039346;28;20219;-72
2022/03/15 04:59:30;;;;;;;4.03;1.77;;;;;;;5.92;79.09;97232.59;5038962;28;20205;-72
2022/03/15 05:01:57;;;;;;;5.73;2.20;;;;;;;6.03;78.72;97230.75;5039533;28;20569;-72
2022/03/15 05:04:23;;;;;;;2.23;1.20;;;;;;;6.14;77.31;97242.00;5038735;28;20595;-72
2022/03/15 05:06:50;;;;;;;2.10;1.50;;;;;;;6.16;76.78;97242.72;5038806;28;20207;-72
2022/03/15 05:09:17;;;;;;;2.33;1.53;;;;;;;6.27;76.85;97240.03;5039428;28;20201;-72
2022/03/15 05:11:45;;;;;;;4.10;1.60;;;;;;;6.16;77.15;97228.78;5040398;28;20197;-72
2022/03/15 05:14:13;;;;;;;2.03;1.60;;;;;;;6.35;77.12;97229.78;5038510;28;20901;-72
2022/03/15 05:16:40;;;;;;;2.37;1.73;;;;;;;6.15;76.81;97224.53;5035914;28;20584;-72
2022/03/15 05:19:06;;;;;;;2.50;1.33;;;;;;;6.06;77.13;97220.06;5039457;28;20236;-72
2022/03/15 05:21:33;;;;;;;15.23;2.73;;;;;;;5.78;78.18;97210.19;5039581;28;20205;-72
2022/03/15 05:23:59;;;;;;;3.47;1.70;;;;;;;5.54;80.00;97208.69;5038071;28;20229;-72
2022/03/15 05:26:26;;;;;;;5.00;2.67;;;;;;;5.57;80.27;97222.31;5039343;28;20205;-72
2022/03/15 05:28:53;;;;;;;4.13;2.07;;;;;;;5.99;78.77;97218.06;5038994;28;20202;-72
2022/03/15 05:31:22;;;;;;;9.80;2.30;;;;;;;6.26;77.68;97222.69;5038533;28;20205;-72
2022/03/15 05:33:49;;;;;;;12.57;2.33;;;;;;;6.00;77.89;97222.34;5039390;28;20316;-72
2022/03/15 05:36:16;;;;;;;6.03;2.43;;;;;;;6.14;77.92;97210.59;5042128;28;20205;-72
2022/03/15 05:38:43;;;;;;;3.03;1.90;;;;;;;5.89;78.31;97223.19;5040112;28;20634;-72
2022/03/15 05:41:10;;;;;;;7.10;2.13;;;;;;;5.84;78.69;97225.38;5039045;28;20669;-72
2022/03/15 05:43:37;;;;;;;14.47;2.63;;;;;;;5.86;79.19;97223.47;5037598;28;20233;-72
2022/03/15 05:46:04;;;;;;;3.97;1.73;;;;;;;6.07;78.35;97221.69;5038503;28;20205;-72
2022/03/15 05:48:33;;;;;;;7.87;3.20;;;;;;;6.22;78.36;97216.06;5038368;28;20683;-72
2022/03/15 05:51:00;;;;;;;7.93;3.37;;;;;;;6.04;78.24;97215.91;5038604;28;20209;-72
2022/03/15 05:53:26;;;;;;;8.10;3.27;;;;;;;6.04;78.62;97212.31;5038078;28;20227;-72
2022/03/15 05:55:52;;;;;;;6.27;2.60;;;;;;;6.04;78.61;97206.25;5037720;28;20673;-72
2022/03/15 05:58:19;;;;;;;7.17;2.77;;;;;;;6.21;78.26;97211.78;5038199;28;20235;-72
2022/03/15 06:00:46;;;;;;;7.53;3.30;;;;;;;6.22;78.18;97207.34;5037803;28;20212;-72
2022/03/15 06:03:13;;;;;;;2.37;1.87;;;;;;;6.19;78.89;97208.44;5037376;28;20225;-72
2022/03/15 06:05:40;;;;;;;3.60;1.83;;;;;;;6.56;78.27;97214.88;5038262;28;20286;-72
2022/03/15 06:08:08;;;;;;;5.13;2.50;;;;;;;6.38;78.37;97205.13;5038513;28;20203;-72
2022/03/15 06:10:35;;;;;;;6.57;1.73;;;;;;;6.57;77.94;97205.22;5038012;28;20217;-72
2022/03/15 06:13:02;;;;;;;6.87;2.10;;;;;;;6.55;78.25;97200.13;5036048;28;20229;-72
2022/03/15 06:15:28;;;;;;;3.40;2.13;;;;;;;6.38;78.71;97205.13;5035523;28;20241;-72
2022/03/15 06:17:57;;;;;;;5.70;2.40;;;;;;;6.43;79.03;97209.03;5037427;28;20217;-72
2022/03/15 06:20:25;;;;;;;5.60;2.53;;;;;;;6.63;78.27;97210.78;5038564;28;20232;-72
2022/03/15 06:22:53;;;;;;;11.07;2.97;;;;;;;6.94;77.53;97218.53;5036665;28;20572;-72
2022/03/15 06:25:20;;;;;;;9.47;4.27;;;;;;;6.85;77.31;97221.13;5037852;28;20680;-72
2022/03/15 06:27:47;;;;;;;4.57;2.03;;;;;;;7.03;75.75;97215.13;5038013;28;20221;-72
2022/03/15 06:30:15;;;;;;;6.13;2.43;;;;;;;7.18;76.30;97207.72;5037759;28;20205;-72
2022/03/15 06:32:41;;;;;;;6.83;2.13;;;;;;;7.07;75.56;97218.31;5037432;28;20292;-72
2022/03/15 06:35:10;;;;;;;20.57;3.33;;;;;;;7.32;75.32;97209.03;5037271;28;20689;-72
2022/03/15 06:37:39;;;;;;;8.50;3.30;;;;;;;7.18;74.56;97207.72;5037282;28;20208;-72
2022/03/15 06:40:08;;;;;;;5.93;3.13;;;;;;;7.18;74.88;97202.47;5037537;28;20594;-72
2022/03/15 06:42:34;;;;;;;6.30;3.60;;;;;;;7.01;74.73;97209.16;5036786;28;20216;-72
2022/03/15 06:45:01;;;;;;;5.50;1.80;;;;;;;6.88;75.09;97213.00;5037087;28;20690;-72
2022/03/15 06:47:27;;;;;;;6.93;2.00;;;;;;;7.05;74.71;97218.47;5037349;28;20212;-71
2022/03/15 06:49:54;;;;;;;6.93;2.50;;;;;;;7.24;74.18;97212.44;5037315;28;20198;-71
2022/03/15 06:52:20;;;;;;;3.17;1.90;;;;;;;7.35;73.80;97210.53;5036298;28;20216;-72
2022/03/15 06:54:47;;;;;;;3.87;2.23;;;;;;;7.28;74.58;97210.25;5037245;28;20248;-72
2022/03/15 06:57:15;;;;;;;4.63;2.30;;;;;;;7.55;74.80;97207.00;5037512;28;20216;-73
2022/03/15 06:59:42;;;;;;;5.23;2.70;;;;;;;7.40;73.67;97205.72;5037165;28;20267;-72
2022/03/15 07:02:08;;;;;;;3.00;2.17;;;;;;;7.32;72.95;97209.03;5037125;28;20201;-72
2022/03/15 07:04:35;;;;;;;3.00;1.53;;;;;;;7.11;73.58;97207.41;5036894;28;20311;-72
2022/03/15 07:07:01;;;;;;;6.90;1.80;;;;;;;7.19;73.14;97210.19;5037278;28;20213;-72
2022/03/15 07:09:27;;;;;;;4.40;2.30;;;;;;;7.20;72.92;97213.66;5037332;28;20197;-72
2022/03/15 07:11:54;;;;;;;4.07;2.40;;;;;;;7.39;72.53;97204.88;5037023;28;20729;-72
2022/03/15 07:14:22;;;;;;;4.83;2.20;;;;;;;7.77;71.90;97204.97;5035814;28;20221;-72
2022/03/15 07:16:48;;;;;;;3.63;2.10;;;;;;;7.32;72.54;97216.88;5033834;28;20215;-72
2022/03/15 07:19:15;;;;;;;2.50;1.87;;;;;;;7.31;72.42;97233.56;5037089;28;20228;-72
2022/03/15 07:21:41;;;;;;;5.07;2.83;;;;;;;7.35;72.58;97224.47;5036279;28;20205;-72
2022/03/15 07:24:08;;;;;;;2.77;1.60;;;;;;;7.61;72.20;97212.53;5035235;28;20276;-72
2022/03/15 07:26:35;;;;;;;3.27;2.37;;;;;;;7.52;71.90;97223.84;5037288;28;20201;-72
2022/03/15 07:29:02;;;;;;;3.80;1.50;;;;;;;7.56;72.02;97221.75;5037214;28;20205;-72
2022/03/15 07:31:30;;;;;;;4.40;2.30;;;;;;;7.79;71.92;97220.56;5036455;28;20259;-72
2022/03/15 07:33:56;;;;;;;3.87;1.17;;;;;;;7.63;71.84;97215.03;5035922;28;20228;-72
2022/03/15 07:36:23;;;;;;;6.17;3.30;;;;;;;7.69;71.32;97220.56;5036893;28;20216;-72
2022/03/15 07:38:50;;;;;;;5.17;2.03;;;;;;;8.04;71.21;97221.72;5036511;28;20221;-72
2022/03/15 07:41:18;;;;;;;11.03;3.87;;;;;;;7.97;70.91;97217.16;5036728;28;20224;-72
2022/03/15 07:43:45;;;;;;;13.97;3.93;;;;;;;7.96;71.03;97220.72;5035600;28;20229;-72
2022/03/15 07:46:11;;;;;;;8.73;3.20;;;;;;;8.01;70.66;97221.16;5036722;28;20208;-71
2022/03/15 07:48:40;;;;;;;7.77;2.93;;;;;;;8.17;70.75;97211.78;5036501;28;20212;-73
2022/03/15 07:51:06;;;;;;;5.73;2.83;;;;;;;8.16;69.60;97210.13;5036127;28;20485;-72
2022/03/15 07:53:33;;;;;;;3.37;2.23;;;;;;;8.31;68.75;97198.25;5035410;28;21119;-72
2022/03/15 07:56:00;;;;;;;10.40;3.10;;;;;;;8.56;68.26;97198.44;5036417;28;20208;-70
2022/03/15 07:58:27;;;;;;;6.63;3.03;;;;;;;8.56;68.02;97197.63;5037026;28;20221;-73
2022/03/15 08:00:56;;;;;;;10.63;4.10;;;;;;;8.31;68.13;97189.50;5037873;28;20208;-72
2022/03/15 08:03:22;;;;;;;4.97;2.50;;;;;;;8.40;67.99;97196.56;5035734;28;20224;-72
2022/03/15 08:05:50;;;;;;;2.93;1.83;;;;;;;8.28;68.72;97200.31;5036640;28;20213;-72
2022/03/15 08:08:17;;;;;;;2.77;1.80;;;;;;;8.32;68.97;97191.19;5036982;28;20211;-72
2022/03/15 08:10:44;;;;;;;2.23;1.40;;;;;;;8.51;68.24;97189.34;5036127;28;20209;-71
2022/03/15 08:13:10;;;;;;;3.33;1.87;;;;;;;8.44;68.07;97180.38;5035843;28;20283;-72
2022/03/15 08:15:37;;;;;;;3.73;1.87;;;;;;;8.94;67.19;97176.50;5034119;28;20205;-72
2022/03/15 08:18:06;;;;;;;4.43;1.87;;;;;;;8.91;67.67;97182.88;5035678;28;20224;-72
2022/03/15 08:20:33;;;;;;;2.70;2.17;;;;;;;8.84;66.82;97179.16;5036306;28;20287;-72
2022/03/15 08:23:01;;;;;;;3.57;2.37;;;;;;;8.82;67.96;97167.97;5035267;28;20217;-72
2022/03/15 08:25:28;;;;;;;6.20;2.50;;;;;;;8.76;67.45;97173.78;5036117;28;20315;-72
2022/03/15 08:27:55;;;;;;;3.87;1.97;;;;;;;8.80;67.04;97164.66;5040011;28;20220;-72
2022/03/15 08:30:21;;;;;;;4.17;1.77;;;;;;;8.58;67.75;97172.06;5040260;28;20197;-72
2022/03/15 08:32:48;;;;;;;6.23;2.90;;;;;;;8.79;67.42;97170.06;5036478;28;20259;-72
2022/03/15 08:35:14;;;;;;;6.70;2.87;;;;;;;8.85;67.48;97178.19;5038897;28;20389;-72
2022/03/15 08:37:43;;;;;;;11.77;2.57;;;;;;;9.34;66.82;97175.19;5039117;28;20669;-72
2022/03/15 08:40:13;;;;;;;5.87;2.10;;;;;;;9.68;65.84;97168.34;5038319;28;20225;-71
2022/03/15 08:42:39;;;;;;;4.57;2.00;;;;;;;9.30;66.23;97168.56;5037719;28;20669;-72
2022/03/15 08:45:08;;;;;;;6.07;2.27;;;;;;;9.37;66.20;97169.66;5038828;28;20296;-72
2022/03/15 08:47:34;;;;;;;5.13;1.90;;;;;;;9.45;65.64;97177.63;5039005;28;20213;-72
2022/03/15 08:50:01;;;;;;;5.20;2.73;;;;;;;9.56;65.46;97172.16;5038042;28;20212;-72
2022/03/15 08:52:28;;;;;;;11.23;2.50;;;;;;;9.45;65.87;97175.81;5038140;28;20656;-72
2022/03/15 08:54:54;;;;;;;4.20;2.27;;;;;;;9.23;66.86;97178.03;5038455;28;20654;-72
2022/03/15 08:57:23;;;;;;;6.80;2.73;;;;;;;9.72;65.62;97179.25;5038547;28;20213;-72
2022/03/15 08:59:49;;;;;;;5.67;2.40;;;;;;;9.62;65.50;97179.47;5038080;28;20248;-72
2022/03/15 09:02:17;;;;;;;7.23;3.20;;;;;;;9.65;64.99;97179.16;5038525;28;20205;-72
2022/03/15 09:04:43;;;;;;;3.70;2.63;;;;;;;9.39;66.63;97170.31;5037772;28;20216;-72
2022/03/15 09:07:10;;;;;;;4.13;2.07;;;;;;;9.70;65.87;97162.78;5038708;28;20211;-72
2022/03/15 09:09:37;;;;;;;8.40;2.50;;;;;;;9.87;65.26;97154.06;5038334;28;20212;-72
2022/03/15 09:12:05;;;;;;;5.23;2.00;;;;;;;10.05;64.24;97160.16;5042066;28;20205;-71
2022/03/15 09:14:33;;;;;;;3.80;1.93;;;;;;;10.10;63.51;97155.28;5047131;28;20233;-71
2022/03/15 09:17:00;;;;;;;5.70;2.03;;;;;;;9.88;64.92;97153.06;5047073;28;20193;-70
2022/03/15 09:19:27;;;;;;;6.70;2.60;;;;;;;10.27;63.44;97146.50;5044986;28;20231;-71
2022/03/15 09:21:53;;;;;;;5.93;2.50;;;;;;;10.43;63.92;97142.19;5045547;28;20205;-71
2022/03/15 09:24:20;;;;;;;4.97;2.90;;;;;;;9.98;63.65;97156.50;5046748;28;20221;-71
2022/03/15 09:26:46;;;;;;;5.03;2.07;;;;;;;10.26;63.29;97160.69;5041023;28;20201;-71
2022/03/15 09:29:13;;;;;;;4.97;2.67;;;;;;;10.55;62.26;97151.53;5043041;28;20577;-71
2022/03/15 09:31:41;;;;;;;9.63;3.70;;;;;;;10.95;61.46;97136.75;5043579;28;20930;-70
2022/03/15 09:34:08;;;;;;;7.00;2.50;;;;;;;10.91;60.78;97139.88;5041206;28;20732;-71
2022/03/15 09:36:35;;;;;;;5.10;2.83;;;;;;;11.30;60.61;97133.94;5043170;28;20209;-71
2022/03/15 09:39:02;;;;;;;4.53;2.40;;;;;;;10.83;61.36;97128.44;5043688;28;20233;-71
2022/03/15 09:41:29;;;;;;;2.83;2.00;;;;;;;10.78;61.80;97131.56;5041518;28;20266;-71
2022/03/15 09:43:56;;;;;;;4.10;1.40;;;;;;;11.00;60.56;97121.28;5039743;28;20581;-71
2022/03/15 09:46:23;;;;;;;3.93;2.50;;;;;;;11.30;60.43;97122.53;5041030;28;20243;-71
2022/03/15 09:48:54;;;;;;;2.07;1.50;;;;;;;10.91;61.20;97116.13;5040320;28;20201;-71
2022/03/15 09:51:20;;;;;;;4.40;2.20;;;;;;;10.67;61.41;97117.81;5040215;28;20975;-71
2022/03/15 09:53:48;;;;;;;5.60;2.33;;;;;;;10.50;62.77;97126.59;5040115;28;20236;-70
2022/03/15 09:56:16;;;;;;;6.80;2.30;;;;;;;10.79;62.20;97116.56;5040404;28;20304;-70
2022/03/15 09:58:43;;;;;;;4.67;2.27;;;;;;;11.09;61.00;97108.97;5039638;28;20662;-70
2022/03/15 10:01:14;;;;;;;7.83;2.50;;;;;;;11.14;60.71;97106.69;5040046;28;20205;-71
2022/03/15 10:03:41;;;;;;;4.53;2.80;;;;;;;11.09;61.58;97096.59;5041354;28;20287;-71
2022/03/15 10:06:09;;;;;;;5.87;2.97;;;;;;;11.29;60.65;97081.31;5039520;28;21202;-70
2022/03/15 10:08:35;;;;;;;5.60;2.53;;;;;;;11.61;60.42;97084.91;5039694;28;21060;-70
2022/03/15 10:11:03;;;;;;;3.43;2.37;;;;;;;11.32;61.31;97087.09;5038348;28;20767;-71
2022/03/15 10:13:30;;;;;;;6.53;2.47;;;;;;;11.37;61.86;97090.09;5037982;28;20783;-71
2022/03/15 10:15:59;;;;;;;4.47;2.20;;;;;;;11.82;62.96;97091.34;5035773;28;20201;-71
2022/03/15 10:18:26;;;;;;;5.73;2.00;;;;;;;11.36;61.22;97082.34;5038778;28;20315;-71
2022/03/15 10:20:53;;;;;;;5.70;2.93;;;;;;;11.42;61.70;97079.03;5038064;28;20224;-70
2022/03/15 10:23:29;;;;;;;7.47;2.40;;;;;;;11.70;62.06;97073.34;5037623;28;20344;-70
2022/03/15 10:25:56;;;;;;;11.60;3.00;;;;;;;11.64;61.36;97076.66;5038647;28;20670;-71
2022/03/15 10:28:24;;;;;;;3.77;1.50;;;;;;;11.90;61.92;97077.31;5039093;28;20205;-71
2022/03/15 10:30:50;;;;;;;4.23;2.80;;;;;;;12.05;61.44;97065.91;5038654;28;20193;-71
2022/03/15 10:33:19;;;;;;;5.00;2.30;;;;;;;12.15;62.01;97048.09;5038002;28;20595;-71
2022/03/15 10:35:49;;;;;;;5.23;2.63;;;;;;;12.36;60.80;97043.94;5036873;28;20209;-71
2022/03/15 10:38:17;;;;;;;10.80;1.87;;;;;;;12.37;60.32;97032.38;5038863;28;20216;-71
2022/03/15 10:40:46;;;;;;;6.97;2.27;;;;;;;12.29;60.89;97029.72;5039598;28;20214;-71
2022/03/15 10:43:17;;;;;;;4.90;2.30;;;;;;;12.41;60.99;97016.97;5038703;28;20236;-71
2022/03/15 10:45:46;;;;;;;4.33;2.03;;;;;;;12.55;60.79;97014.47;5039549;28;20201;-71
2022/03/15 10:48:17;;;;;;;19.67;2.77;;;;;;;12.30;61.73;97018.16;5039526;28;20212;-71
2022/03/15 10:50:51;;;;;;;6.63;2.20;;;;;;;12.42;61.61;97015.97;5039256;28;20201;-71
2022/03/15 10:53:18;;;;;;;5.17;2.00;;;;;;;12.23;62.29;97025.13;5038178;28;20225;-71
2022/03/15 10:55:46;;;;;;;3.77;2.00;;;;;;;12.54;62.33;97017.28;5038761;28;20209;-71
2022/03/15 10:58:15;;;;;;;3.70;1.73;;;;;;;12.28;63.13;97016.69;5039163;28;20208;-71
2022/03/15 11:00:43;;;;;;;4.90;2.50;;;;;;;12.15;64.33;97008.44;5038285;28;20205;-71
2022/03/15 11:03:13;;;;;;;7.00;2.40;;;;;;;12.32;64.01;97008.25;5037540;28;20221;-71
2022/03/15 11:05:42;;;;;;;2.83;1.70;;;;;;;12.06;64.72;97000.72;5039102;28;20857;-71
2022/03/15 11:08:10;;;;;;;5.10;2.63;;;;;;;12.31;64.60;96996.03;5040590;28;20201;-71
2022/03/15 11:10:38;;;;;;;3.23;1.80;;;;;;;12.13;65.09;96991.13;5039397;28;20205;-70
2022/03/15 11:13:11;;;;;;;6.30;1.87;;;;;;;12.15;65.59;96989.97;5038570;28;20228;-70
2022/03/15 11:15:40;;;;;;;4.27;1.70;;;;;;;12.08;66.22;96993.44;5035141;28;20197;-69
2022/03/15 11:18:08;;;;;;;7.67;1.60;;;;;;;12.26;65.60;96982.50;5036774;28;20835;-69
2022/03/15 11:20:37;;;;;;;6.20;2.00;;;;;;;12.37;65.76;96981.31;5035621;28;20220;-71
2022/03/15 11:23:07;;;;;;;5.33;2.70;;;;;;;12.25;66.03;96977.38;5036935;28;20232;-71
2022/03/15 11:25:36;;;;;;;2.30;1.40;;;;;;;12.18;66.48;96979.03;5038439;28;20213;-71
2022/03/15 11:28:09;;;;;;;3.60;2.47;;;;;;;12.06;67.46;96982.22;5039219;28;20204;-71
2022/03/15 11:30:36;;;;;;;3.83;2.40;;;;;;;12.16;66.57;96972.31;5038822;28;20198;-71
2022/03/15 11:33:04;;;;;;;4.87;2.13;;;;;;;12.26;66.87;96961.34;5037974;28;20713;-71
2022/03/15 11:35:32;;;;;;;7.40;2.40;;;;;;;11.96;67.82;96948.06;5038976;28;20189;-71
2022/03/15 11:38:00;;;;;;;6.00;2.10;;;;;;;12.11;67.44;96940.28;5038358;28;20197;-71
2022/03/15 11:40:27;;;;;;;2.53;1.60;;;;;;;11.92;68.09;96938.00;5039251;28;20239;-71